sensor_id;sensor_type;location;lat;lon;timestamp;P1;durP1;ratioP1;P2;durP2;ratioP2
9007;SDS011;62813;51.424;6.762;2022-08-19T00:02:00;9.33;;;5.40;;
9007;SDS011;62813;51.424;6.762;2022-08-19T00:04:29;5.40;;;4.87;;
9007;SDS011;62813;51.424;6.762;2022-08-19T00:06:58;6.90;;;5.13;;
9007;SDS011;62813;51.424;6.762;2022-08-19T00:09:25;6.03;;;4.90;;
9007;SDS011;62813;51.424;6.762;2022-08-19T00:11:53;7.50;;;5.47;;
9007;SDS011;62813;51.424;6.762;2022-08-19T00:14:22;6.53;;;5.03;;
9007;SDS011;62813;51.424;6.762;2022-08-19T00:16:50;9.93;;;5.63;;
9007;SDS011;62813;51.424;6.762;2022-08-19T00:19:20;6.87;;;5.37;;
9007;SDS011;62813;51.424;6.762;2022-08-19T00:21:47;7.13;;;5.50;;
9007;SDS011;62813;51.424;6.762;2022-08-19T00:24:14;6.57;;;5.20;;
9007;SDS011;62813;51.424;6.762;2022-08-19T00:26:41;7.00;;;5.30;;
9007;SDS011;62813;51.424;6.762;2022-08-19T00:29:10;5.63;;;5.13;;
9007;SDS011;62813;51.424;6.762;2022-08-19T00:31:38;5.83;;;4.93;;
9007;SDS011;62813;51.424;6.762;2022-08-19T00:34:05;8.30;;;5.47;;
9007;SDS011;62813;51.424;6.762;2022-08-19T00:36:32;8.10;;;5.67;;
9007;SDS011;62813;51.424;6.762;2022-08-19T00:38:59;6.50;;;5.80;;
9007;SDS011;62813;51.424;6.762;2022-08-19T00:41:26;7.63;;;5.63;;
9007;SDS011;62813;51.424;6.762;2022-08-19T00:44:00;6.07;;;5.50;;
9007;SDS011;62813;51.424;6.762;2022-08-19T00:46:37;5.77;;;5.17;;
9007;SDS011;62813;51.424;6.762;2022-08-19T00:49:12;5.70;;;4.90;;
9007;SDS011;62813;51.424;6.762;2022-08-19T00:51:43;7.70;;;5.40;;
9007;SDS011;62813;51.424;6.762;2022-08-19T00:54:13;7.27;;;5.53;;
9007;SDS011;62813;51.424;6.762;2022-08-19T00:56:41;6.37;;;5.73;;
9007;SDS011;62813;51.424;6.762;2022-08-19T00:59:08;6.83;;;6.10;;
9007;SDS011;62813;51.424;6.762;2022-08-19T01:01:36;6.70;;;5.73;;
9007;SDS011;62813;51.424;6.762;2022-08-19T01:04:07;7.07;;;6.20;;
9007;SDS011;62813;51.424;6.762;2022-08-19T01:06:35;6.50;;;5.90;;
9007;SDS011;62813;51.424;6.762;2022-08-19T01:09:03;6.53;;;5.80;;
9007;SDS011;62813;51.424;6.762;2022-08-19T01:11:31;8.07;;;6.03;;
9007;SDS011;62813;51.424;6.762;2022-08-19T01:14:01;6.97;;;5.80;;
9007;SDS011;62813;51.424;6.762;2022-08-19T01:16:29;7.23;;;6.23;;
9007;SDS011;62813;51.424;6.762;2022-08-19T01:18:56;7.27;;;5.50;;
9007;SDS011;62813;51.424;6.762;2022-08-19T01:21:29;6.53;;;5.93;;
9007;SDS011;62813;51.424;6.762;2022-08-19T01:23:57;7.70;;;6.33;;
9007;SDS011;62813;51.424;6.762;2022-08-19T01:26:24;8.10;;;6.27;;
9007;SDS011;62813;51.424;6.762;2022-08-19T01:28:53;6.17;;;5.67;;
9007;SDS011;62813;51.424;6.762;2022-08-19T01:31:26;11.17;;;6.43;;
9007;SDS011;62813;51.424;6.762;2022-08-19T01:33:59;7.07;;;6.43;;
9007;SDS011;62813;51.424;6.762;2022-08-19T01:36:31;8.47;;;5.97;;
9007;SDS011;62813;51.424;6.762;2022-08-19T01:39:14;12.00;;;6.60;;
9007;SDS011;62813;51.424;6.762;2022-08-19T01:41:43;7.80;;;6.10;;
9007;SDS011;62813;51.424;6.762;2022-08-19T01:44:10;8.13;;;6.30;;
9007;SDS011;62813;51.424;6.762;2022-08-19T01:46:45;6.93;;;6.23;;
9007;SDS011;62813;51.424;6.762;2022-08-19T01:49:14;9.10;;;6.30;;
9007;SDS011;62813;51.424;6.762;2022-08-19T01:51:43;8.20;;;6.13;;
9007;SDS011;62813;51.424;6.762;2022-08-19T01:54:09;7.30;;;6.27;;
9007;SDS011;62813;51.424;6.762;2022-08-19T01:56:49;7.10;;;6.20;;
9007;SDS011;62813;51.424;6.762;2022-08-19T01:59:21;7.77;;;6.30;;
9007;SDS011;62813;51.424;6.762;2022-08-19T02:01:50;8.70;;;6.43;;
9007;SDS011;62813;51.424;6.762;2022-08-19T02:04:17;7.43;;;6.60;;
9007;SDS011;62813;51.424;6.762;2022-08-19T02:06:43;7.87;;;6.40;;
9007;SDS011;62813;51.424;6.762;2022-08-19T02:09:10;7.67;;;6.30;;
9007;SDS011;62813;51.424;6.762;2022-08-19T02:11:37;7.63;;;6.53;;
9007;SDS011;62813;51.424;6.762;2022-08-19T02:14:05;7.67;;;6.87;;
9007;SDS011;62813;51.424;6.762;2022-08-19T02:16:33;7.50;;;6.80;;
9007;SDS011;62813;51.424;6.762;2022-08-19T02:19:02;7.50;;;6.70;;
9007;SDS011;62813;51.424;6.762;2022-08-19T02:21:29;7.33;;;6.33;;
9007;SDS011;62813;51.424;6.762;2022-08-19T02:23:56;7.87;;;7.03;;
9007;SDS011;62813;51.424;6.762;2022-08-19T02:26:24;8.40;;;6.70;;
9007;SDS011;62813;51.424;6.762;2022-08-19T02:28:53;7.63;;;6.93;;
9007;SDS011;62813;51.424;6.762;2022-08-19T02:31:21;8.77;;;6.67;;
9007;SDS011;62813;51.424;6.762;2022-08-19T02:33:51;8.27;;;7.43;;
9007;SDS011;62813;51.424;6.762;2022-08-19T02:36:22;8.20;;;7.40;;
9007;SDS011;62813;51.424;6.762;2022-08-19T02:38:50;7.63;;;6.83;;
9007;SDS011;62813;51.424;6.762;2022-08-19T02:41:22;10.67;;;7.10;;
9007;SDS011;62813;51.424;6.762;2022-08-19T02:43:52;7.87;;;7.17;;
9007;SDS011;62813;51.424;6.762;2022-08-19T02:46:40;7.70;;;6.90;;
9007;SDS011;62813;51.424;6.762;2022-08-19T02:49:07;8.00;;;7.30;;
9007;SDS011;62813;51.424;6.762;2022-08-19T02:51:36;9.30;;;8.13;;
9007;SDS011;62813;51.424;6.762;2022-08-19T02:54:05;8.47;;;7.57;;
9007;SDS011;62813;51.424;6.762;2022-08-19T02:56:36;8.63;;;7.43;;
9007;SDS011;62813;51.424;6.762;2022-08-19T02:59:05;8.17;;;7.37;;
9007;SDS011;62813;51.424;6.762;2022-08-19T03:01:36;7.03;;;6.43;;
9007;SDS011;62813;51.424;6.762;2022-08-19T03:04:05;7.50;;;6.80;;
9007;SDS011;62813;51.424;6.762;2022-08-19T03:06:37;7.37;;;6.67;;
9007;SDS011;62813;51.424;6.762;2022-08-19T03:09:06;7.50;;;6.80;;
9007;SDS011;62813;51.424;6.762;2022-08-19T03:11:33;7.40;;;6.70;;
9007;SDS011;62813;51.424;6.762;2022-08-19T03:14:00;8.37;;;7.30;;
9007;SDS011;62813;51.424;6.762;2022-08-19T03:16:29;8.07;;;6.77;;
9007;SDS011;62813;51.424;6.762;2022-08-19T03:18:58;8.07;;;7.27;;
9007;SDS011;62813;51.424;6.762;2022-08-19T03:21:30;8.37;;;7.17;;
9007;SDS011;62813;51.424;6.762;2022-08-19T03:23:58;7.67;;;6.73;;
9007;SDS011;62813;51.424;6.762;2022-08-19T03:26:27;9.37;;;6.97;;
9007;SDS011;62813;51.424;6.762;2022-08-19T03:28:54;8.20;;;7.20;;
9007;SDS011;62813;51.424;6.762;2022-08-19T03:31:24;7.83;;;7.13;;
9007;SDS011;62813;51.424;6.762;2022-08-19T03:34:15;8.40;;;7.40;;
9007;SDS011;62813;51.424;6.762;2022-08-19T03:36:45;8.07;;;7.27;;
9007;SDS011;62813;51.424;6.762;2022-08-19T03:39:12;8.27;;;7.40;;
9007;SDS011;62813;51.424;6.762;2022-08-19T03:41:41;8.20;;;7.40;;
9007;SDS011;62813;51.424;6.762;2022-08-19T03:44:14;8.00;;;7.17;;
9007;SDS011;62813;51.424;6.762;2022-08-19T03:46:53;8.40;;;7.70;;
9007;SDS011;62813;51.424;6.762;2022-08-19T03:49:23;8.00;;;7.30;;
9007;SDS011;62813;51.424;6.762;2022-08-19T03:51:54;9.97;;;7.70;;
9007;SDS011;62813;51.424;6.762;2022-08-19T03:54:23;7.97;;;7.27;;
9007;SDS011;62813;51.424;6.762;2022-08-19T03:56:52;9.37;;;7.87;;
9007;SDS011;62813;51.424;6.762;2022-08-19T03:59:22;8.67;;;7.93;;
9007;SDS011;62813;51.424;6.762;2022-08-19T04:01:53;9.60;;;8.53;;
9007;SDS011;62813;51.424;6.762;2022-08-19T04:04:21;10.23;;;9.23;;
9007;SDS011;62813;51.424;6.762;2022-08-19T04:06:48;8.73;;;7.83;;
9007;SDS011;62813;51.424;6.762;2022-08-19T04:09:16;10.03;;;9.00;;
9007;SDS011;62813;51.424;6.762;2022-08-19T04:11:45;10.40;;;9.30;;
9007;SDS011;62813;51.424;6.762;2022-08-19T04:14:16;10.43;;;9.00;;
9007;SDS011;62813;51.424;6.762;2022-08-19T04:16:46;12.27;;;9.60;;
9007;SDS011;62813;51.424;6.762;2022-08-19T04:19:15;10.47;;;9.37;;
9007;SDS011;62813;51.424;6.762;2022-08-19T04:21:43;10.47;;;9.47;;
9007;SDS011;62813;51.424;6.762;2022-08-19T04:24:12;10.90;;;9.67;;
9007;SDS011;62813;51.424;6.762;2022-08-19T04:26:39;11.13;;;9.83;;
9007;SDS011;62813;51.424;6.762;2022-08-19T04:29:08;10.47;;;9.37;;
9007;SDS011;62813;51.424;6.762;2022-08-19T04:31:38;11.07;;;9.37;;
9007;SDS011;62813;51.424;6.762;2022-08-19T04:34:07;11.47;;;9.73;;
9007;SDS011;62813;51.424;6.762;2022-08-19T04:36:37;10.73;;;9.63;;
9007;SDS011;62813;51.424;6.762;2022-08-19T04:39:16;13.80;;;10.83;;
9007;SDS011;62813;51.424;6.762;2022-08-19T04:41:44;12.63;;;11.43;;
9007;SDS011;62813;51.424;6.762;2022-08-19T04:44:30;11.87;;;10.63;;
9007;SDS011;62813;51.424;6.762;2022-08-19T04:47:00;12.47;;;11.23;;
9007;SDS011;62813;51.424;6.762;2022-08-19T04:49:36;12.57;;;11.37;;
9007;SDS011;62813;51.424;6.762;2022-08-19T04:52:03;14.43;;;12.37;;
9007;SDS011;62813;51.424;6.762;2022-08-19T04:54:30;14.00;;;12.60;;
9007;SDS011;62813;51.424;6.762;2022-08-19T04:57:05;13.27;;;11.97;;
9007;SDS011;62813;51.424;6.762;2022-08-19T04:59:37;13.20;;;12.00;;
9007;SDS011;62813;51.424;6.762;2022-08-19T05:02:04;13.00;;;11.60;;
9007;SDS011;62813;51.424;6.762;2022-08-19T05:04:34;15.03;;;11.87;;
9007;SDS011;62813;51.424;6.762;2022-08-19T05:07:05;16.17;;;11.13;;
9007;SDS011;62813;51.424;6.762;2022-08-19T05:09:33;16.13;;;11.20;;
9007;SDS011;62813;51.424;6.762;2022-08-19T05:12:20;15.07;;;10.33;;
9007;SDS011;62813;51.424;6.762;2022-08-19T05:14:50;12.37;;;10.50;;
9007;SDS011;62813;51.424;6.762;2022-08-19T05:17:18;14.93;;;10.07;;
9007;SDS011;62813;51.424;6.762;2022-08-19T05:19:55;12.90;;;10.33;;
9007;SDS011;62813;51.424;6.762;2022-08-19T05:22:41;11.67;;;9.93;;
9007;SDS011;62813;51.424;6.762;2022-08-19T05:25:10;12.40;;;11.10;;
9007;SDS011;62813;51.424;6.762;2022-08-19T05:27:42;15.27;;;11.93;;
9007;SDS011;62813;51.424;6.762;2022-08-19T05:30:09;18.87;;;14.23;;
9007;SDS011;62813;51.424;6.762;2022-08-19T05:32:38;21.20;;;16.47;;
9007;SDS011;62813;51.424;6.762;2022-08-19T05:35:06;17.13;;;15.40;;
9007;SDS011;62813;51.424;6.762;2022-08-19T05:37:33;21.17;;;18.93;;
9007;SDS011;62813;51.424;6.762;2022-08-19T05:40:00;29.27;;;22.23;;
9007;SDS011;62813;51.424;6.762;2022-08-19T05:42:27;29.80;;;24.90;;
9007;SDS011;62813;51.424;6.762;2022-08-19T05:44:54;42.90;;;29.80;;
9007;SDS011;62813;51.424;6.762;2022-08-19T05:47:22;37.23;;;30.83;;
9007;SDS011;62813;51.424;6.762;2022-08-19T05:49:49;35.40;;;28.90;;
9007;SDS011;62813;51.424;6.762;2022-08-19T05:52:17;34.00;;;29.73;;
9007;SDS011;62813;51.424;6.762;2022-08-19T05:54:51;32.60;;;29.10;;
9007;SDS011;62813;51.424;6.762;2022-08-19T05:57:21;33.30;;;29.90;;
9007;SDS011;62813;51.424;6.762;2022-08-19T05:59:49;29.20;;;26.13;;
9007;SDS011;62813;51.424;6.762;2022-08-19T06:02:23;30.20;;;26.13;;
9007;SDS011;62813;51.424;6.762;2022-08-19T06:04:51;34.00;;;29.73;;
9007;SDS011;62813;51.424;6.762;2022-08-19T06:07:18;34.93;;;31.27;;
9007;SDS011;62813;51.424;6.762;2022-08-19T06:09:45;34.17;;;30.23;;
9007;SDS011;62813;51.424;6.762;2022-08-19T06:12:25;35.37;;;31.57;;
9007;SDS011;62813;51.424;6.762;2022-08-19T06:15:03;39.60;;;35.30;;
9007;SDS011;62813;51.424;6.762;2022-08-19T06:17:35;40.87;;;36.67;;
9007;SDS011;62813;51.424;6.762;2022-08-19T06:20:06;34.37;;;30.97;;
9007;SDS011;62813;51.424;6.762;2022-08-19T06:22:39;34.30;;;30.80;;
9007;SDS011;62813;51.424;6.762;2022-08-19T06:25:15;38.03;;;34.10;;
9007;SDS011;62813;51.424;6.762;2022-08-19T06:27:43;35.47;;;31.23;;
9007;SDS011;62813;51.424;6.762;2022-08-19T06:30:31;38.57;;;34.80;;
9007;SDS011;62813;51.424;6.762;2022-08-19T06:32:58;36.77;;;33.03;;
9007;SDS011;62813;51.424;6.762;2022-08-19T06:35:25;34.47;;;31.17;;
9007;SDS011;62813;51.424;6.762;2022-08-19T06:37:51;37.20;;;33.60;;
9007;SDS011;62813;51.424;6.762;2022-08-19T06:40:19;36.53;;;32.80;;
9007;SDS011;62813;51.424;6.762;2022-08-19T06:42:45;41.87;;;33.03;;
9007;SDS011;62813;51.424;6.762;2022-08-19T06:45:20;40.97;;;36.30;;
9007;SDS011;62813;51.424;6.762;2022-08-19T06:47:50;42.80;;;36.50;;
9007;SDS011;62813;51.424;6.762;2022-08-19T06:50:18;38.23;;;34.53;;
9007;SDS011;62813;51.424;6.762;2022-08-19T06:52:45;39.20;;;35.20;;
9007;SDS011;62813;51.424;6.762;2022-08-19T06:55:17;36.80;;;33.00;;
9007;SDS011;62813;51.424;6.762;2022-08-19T06:57:44;35.87;;;32.03;;
9007;SDS011;62813;51.424;6.762;2022-08-19T07:00:12;39.40;;;35.23;;
9007;SDS011;62813;51.424;6.762;2022-08-19T07:02:42;40.33;;;36.23;;
9007;SDS011;62813;51.424;6.762;2022-08-19T07:05:20;37.27;;;33.47;;
9007;SDS011;62813;51.424;6.762;2022-08-19T07:07:47;41.33;;;37.00;;
9007;SDS011;62813;51.424;6.762;2022-08-19T07:10:16;41.47;;;37.17;;
9007;SDS011;62813;51.424;6.762;2022-08-19T07:12:43;42.93;;;38.43;;
9007;SDS011;62813;51.424;6.762;2022-08-19T07:15:11;42.27;;;38.10;;
9007;SDS011;62813;51.424;6.762;2022-08-19T07:17:38;37.33;;;33.53;;
9007;SDS011;62813;51.424;6.762;2022-08-19T07:20:07;43.43;;;37.57;;
9007;SDS011;62813;51.424;6.762;2022-08-19T07:22:38;33.53;;;30.23;;
9007;SDS011;62813;51.424;6.762;2022-08-19T07:25:07;36.80;;;33.10;;
9007;SDS011;62813;51.424;6.762;2022-08-19T07:27:36;37.43;;;33.73;;
9007;SDS011;62813;51.424;6.762;2022-08-19T07:30:05;35.20;;;30.90;;
9007;SDS011;62813;51.424;6.762;2022-08-19T07:32:37;35.37;;;31.83;;
9007;SDS011;62813;51.424;6.762;2022-08-19T07:35:04;33.43;;;30.03;;
9007;SDS011;62813;51.424;6.762;2022-08-19T07:37:32;33.90;;;30.47;;
9007;SDS011;62813;51.424;6.762;2022-08-19T07:40:00;31.27;;;27.97;;
9007;SDS011;62813;51.424;6.762;2022-08-19T07:42:28;35.30;;;31.50;;
9007;SDS011;62813;51.424;6.762;2022-08-19T07:44:56;37.60;;;33.53;;
9007;SDS011;62813;51.424;6.762;2022-08-19T07:47:24;32.87;;;29.37;;
9007;SDS011;62813;51.424;6.762;2022-08-19T07:50:12;31.63;;;28.23;;
9007;SDS011;62813;51.424;6.762;2022-08-19T07:52:38;38.20;;;30.80;;
9007;SDS011;62813;51.424;6.762;2022-08-19T07:55:07;32.70;;;29.40;;
9007;SDS011;62813;51.424;6.762;2022-08-19T07:57:56;30.00;;;26.83;;
9007;SDS011;62813;51.424;6.762;2022-08-19T08:00:23;31.50;;;28.20;;
9007;SDS011;62813;51.424;6.762;2022-08-19T08:02:51;29.37;;;26.43;;
9007;SDS011;62813;51.424;6.762;2022-08-19T08:05:21;29.80;;;26.67;;
9007;SDS011;62813;51.424;6.762;2022-08-19T08:08:09;29.83;;;26.63;;
9007;SDS011;62813;51.424;6.762;2022-08-19T08:10:57;28.37;;;24.77;;
9007;SDS011;62813;51.424;6.762;2022-08-19T08:13:24;25.17;;;22.57;;
9007;SDS011;62813;51.424;6.762;2022-08-19T08:15:51;26.67;;;23.73;;
9007;SDS011;62813;51.424;6.762;2022-08-19T08:18:21;23.33;;;20.93;;
9007;SDS011;62813;51.424;6.762;2022-08-19T08:20:53;26.33;;;23.33;;
9007;SDS011;62813;51.424;6.762;2022-08-19T08:23:21;22.47;;;20.30;;
9007;SDS011;62813;51.424;6.762;2022-08-19T08:25:53;22.23;;;18.73;;
9007;SDS011;62813;51.424;6.762;2022-08-19T08:28:23;22.60;;;19.17;;
9007;SDS011;62813;51.424;6.762;2022-08-19T08:30:51;19.23;;;17.23;;
9007;SDS011;62813;51.424;6.762;2022-08-19T08:33:19;22.33;;;19.43;;
9007;SDS011;62813;51.424;6.762;2022-08-19T08:36:09;21.03;;;18.50;;
9007;SDS011;62813;51.424;6.762;2022-08-19T08:38:37;23.67;;;19.97;;
9007;SDS011;62813;51.424;6.762;2022-08-19T08:43:55;20.40;;;18.20;;
9007;SDS011;62813;51.424;6.762;2022-08-19T08:46:44;24.50;;;21.17;;
9007;SDS011;62813;51.424;6.762;2022-08-19T08:52:13;18.60;;;16.20;;
9007;SDS011;62813;51.424;6.762;2022-08-19T08:54:47;22.63;;;17.83;;
9007;SDS011;62813;51.424;6.762;2022-08-19T08:57:25;22.13;;;19.53;;
9007;SDS011;62813;51.424;6.762;2022-08-19T09:00:04;22.47;;;20.17;;
9007;SDS011;62813;51.424;6.762;2022-08-19T09:02:41;20.20;;;17.20;;
9007;SDS011;62813;51.424;6.762;2022-08-19T09:05:09;21.33;;;18.33;;
9007;SDS011;62813;51.424;6.762;2022-08-19T09:08:02;24.67;;;20.53;;
9007;SDS011;62813;51.424;6.762;2022-08-19T09:10:46;22.33;;;19.00;;
9007;SDS011;62813;51.424;6.762;2022-08-19T09:16:06;22.13;;;19.67;;
9007;SDS011;62813;51.424;6.762;2022-08-19T09:18:43;20.10;;;17.77;;
9007;SDS011;62813;51.424;6.762;2022-08-19T09:21:10;26.87;;;23.93;;
9007;SDS011;62813;51.424;6.762;2022-08-19T09:23:37;27.40;;;24.53;;
9007;SDS011;62813;51.424;6.762;2022-08-19T09:26:08;26.70;;;23.73;;
9007;SDS011;62813;51.424;6.762;2022-08-19T09:28:42;26.57;;;22.67;;
9007;SDS011;62813;51.424;6.762;2022-08-19T09:31:14;24.17;;;19.87;;
9007;SDS011;62813;51.424;6.762;2022-08-19T09:33:43;24.33;;;19.53;;
9007;SDS011;62813;51.424;6.762;2022-08-19T09:36:12;20.37;;;18.27;;
9007;SDS011;62813;51.424;6.762;2022-08-19T09:38:56;20.63;;;17.87;;
9007;SDS011;62813;51.424;6.762;2022-08-19T09:41:24;21.83;;;18.50;;
9007;SDS011;62813;51.424;6.762;2022-08-19T09:43:54;24.00;;;19.60;;
9007;SDS011;62813;51.424;6.762;2022-08-19T09:46:23;21.97;;;19.50;;
9007;SDS011;62813;51.424;6.762;2022-08-19T09:48:52;18.90;;;16.93;;
9007;SDS011;62813;51.424;6.762;2022-08-19T09:51:23;29.50;;;23.40;;
9007;SDS011;62813;51.424;6.762;2022-08-19T09:53:53;24.97;;;21.73;;
9007;SDS011;62813;51.424;6.762;2022-08-19T09:56:24;25.03;;;22.50;;
9007;SDS011;62813;51.424;6.762;2022-08-19T09:58:50;23.17;;;20.83;;
9007;SDS011;62813;51.424;6.762;2022-08-19T10:01:19;22.17;;;19.83;;
9007;SDS011;62813;51.424;6.762;2022-08-19T10:03:49;26.17;;;22.70;;
9007;SDS011;62813;51.424;6.762;2022-08-19T10:06:21;23.63;;;20.97;;
9007;SDS011;62813;51.424;6.762;2022-08-19T10:09:10;25.17;;;21.27;;
9007;SDS011;62813;51.424;6.762;2022-08-19T10:11:39;21.23;;;19.00;;
9007;SDS011;62813;51.424;6.762;2022-08-19T10:14:19;25.73;;;22.47;;
9007;SDS011;62813;51.424;6.762;2022-08-19T10:16:48;25.00;;;20.47;;
9007;SDS011;62813;51.424;6.762;2022-08-19T10:19:18;21.87;;;19.77;;
9007;SDS011;62813;51.424;6.762;2022-08-19T10:21:51;21.80;;;19.70;;
9007;SDS011;62813;51.424;6.762;2022-08-19T10:24:25;19.93;;;17.93;;
9007;SDS011;62813;51.424;6.762;2022-08-19T10:26:54;20.77;;;18.70;;
9007;SDS011;62813;51.424;6.762;2022-08-19T10:29:25;23.13;;;19.03;;
9007;SDS011;62813;51.424;6.762;2022-08-19T10:31:59;22.37;;;17.97;;
9007;SDS011;62813;51.424;6.762;2022-08-19T10:34:38;26.60;;;17.13;;
9007;SDS011;62813;51.424;6.762;2022-08-19T10:37:14;20.13;;;18.03;;
9007;SDS011;62813;51.424;6.762;2022-08-19T10:39:54;19.80;;;17.80;;
9007;SDS011;62813;51.424;6.762;2022-08-19T10:42:21;17.57;;;15.70;;
9007;SDS011;62813;51.424;6.762;2022-08-19T10:44:51;17.60;;;15.80;;
9007;SDS011;62813;51.424;6.762;2022-08-19T10:47:18;18.50;;;16.57;;
9007;SDS011;62813;51.424;6.762;2022-08-19T10:49:54;16.97;;;15.33;;
9007;SDS011;62813;51.424;6.762;2022-08-19T10:52:43;19.77;;;16.63;;
9007;SDS011;62813;51.424;6.762;2022-08-19T10:55:16;15.97;;;14.37;;
9007;SDS011;62813;51.424;6.762;2022-08-19T10:58:03;15.17;;;13.67;;
9007;SDS011;62813;51.424;6.762;2022-08-19T11:00:36;15.03;;;13.53;;
9007;SDS011;62813;51.424;6.762;2022-08-19T11:03:03;15.57;;;13.83;;
9007;SDS011;62813;51.424;6.762;2022-08-19T11:05:30;15.50;;;12.10;;
9007;SDS011;62813;51.424;6.762;2022-08-19T11:08:05;14.13;;;12.67;;
9007;SDS011;62813;51.424;6.762;2022-08-19T11:10:49;13.40;;;11.87;;
9007;SDS011;62813;51.424;6.762;2022-08-19T11:13:27;14.00;;;10.83;;
9007;SDS011;62813;51.424;6.762;2022-08-19T11:16:02;13.00;;;9.43;;
9007;SDS011;62813;51.424;6.762;2022-08-19T11:18:34;17.13;;;11.23;;
9007;SDS011;62813;51.424;6.762;2022-08-19T11:21:05;12.80;;;10.57;;
9007;SDS011;62813;51.424;6.762;2022-08-19T11:23:34;11.50;;;10.30;;
9007;SDS011;62813;51.424;6.762;2022-08-19T11:26:00;12.83;;;10.60;;
9007;SDS011;62813;51.424;6.762;2022-08-19T11:28:28;10.40;;;9.30;;
9007;SDS011;62813;51.424;6.762;2022-08-19T11:30:54;10.17;;;8.60;;
9007;SDS011;62813;51.424;6.762;2022-08-19T11:33:21;10.30;;;9.40;;
9007;SDS011;62813;51.424;6.762;2022-08-19T11:35:48;10.37;;;9.37;;
9007;SDS011;62813;51.424;6.762;2022-08-19T11:38:15;10.87;;;9.80;;
9007;SDS011;62813;51.424;6.762;2022-08-19T11:40:42;10.33;;;9.33;;
9007;SDS011;62813;51.424;6.762;2022-08-19T11:43:08;11.93;;;8.97;;
9007;SDS011;62813;51.424;6.762;2022-08-19T11:45:35;10.63;;;9.53;;
9007;SDS011;62813;51.424;6.762;2022-08-19T11:48:02;8.70;;;7.90;;
9007;SDS011;62813;51.424;6.762;2022-08-19T11:50:29;10.80;;;8.47;;
9007;SDS011;62813;51.424;6.762;2022-08-19T11:52:56;9.40;;;8.40;;
9007;SDS011;62813;51.424;6.762;2022-08-19T11:55:23;9.87;;;8.57;;
9007;SDS011;62813;51.424;6.762;2022-08-19T11:57:50;10.90;;;8.40;;
9007;SDS011;62813;51.424;6.762;2022-08-19T12:00:16;8.93;;;7.90;;
9007;SDS011;62813;51.424;6.762;2022-08-19T12:02:43;9.40;;;6.90;;
9007;SDS011;62813;51.424;6.762;2022-08-19T12:05:10;7.10;;;6.40;;
9007;SDS011;62813;51.424;6.762;2022-08-19T12:07:38;7.97;;;7.17;;
9007;SDS011;62813;51.424;6.762;2022-08-19T12:10:06;7.57;;;6.87;;
9007;SDS011;62813;51.424;6.762;2022-08-19T12:12:33;7.23;;;6.53;;
9007;SDS011;62813;51.424;6.762;2022-08-19T12:15:00;7.97;;;6.43;;
9007;SDS011;62813;51.424;6.762;2022-08-19T12:17:27;10.70;;;7.10;;
9007;SDS011;62813;51.424;6.762;2022-08-19T12:19:54;9.87;;;6.40;;
9007;SDS011;62813;51.424;6.762;2022-08-19T12:22:21;7.63;;;7.00;;
9007;SDS011;62813;51.424;6.762;2022-08-19T12:24:47;8.23;;;6.47;;
9007;SDS011;62813;51.424;6.762;2022-08-19T12:27:16;7.10;;;6.37;;
9007;SDS011;62813;51.424;6.762;2022-08-19T12:29:57;8.03;;;6.20;;
9007;SDS011;62813;51.424;6.762;2022-08-19T12:32:24;9.47;;;6.50;;
9007;SDS011;62813;51.424;6.762;2022-08-19T12:34:52;10.53;;;6.60;;
9007;SDS011;62813;51.424;6.762;2022-08-19T12:37:19;7.07;;;6.37;;
9007;SDS011;62813;51.424;6.762;2022-08-19T12:39:45;7.07;;;6.10;;
9007;SDS011;62813;51.424;6.762;2022-08-19T12:42:13;7.23;;;6.40;;
9007;SDS011;62813;51.424;6.762;2022-08-19T12:44:41;9.67;;;6.47;;
9007;SDS011;62813;51.424;6.762;2022-08-19T12:47:10;7.47;;;6.63;;
9007;SDS011;62813;51.424;6.762;2022-08-19T12:49:40;8.43;;;6.23;;
9007;SDS011;62813;51.424;6.762;2022-08-19T12:52:18;7.60;;;6.90;;
9007;SDS011;62813;51.424;6.762;2022-08-19T12:54:48;8.33;;;6.30;;
9007;SDS011;62813;51.424;6.762;2022-08-19T12:57:19;9.40;;;6.30;;
9007;SDS011;62813;51.424;6.762;2022-08-19T12:59:53;5.63;;;5.03;;
9007;SDS011;62813;51.424;6.762;2022-08-19T13:02:20;6.70;;;4.70;;
9007;SDS011;62813;51.424;6.762;2022-08-19T13:04:47;6.63;;;4.57;;
9007;SDS011;62813;51.424;6.762;2022-08-19T13:07:14;5.90;;;5.10;;
9007;SDS011;62813;51.424;6.762;2022-08-19T13:09:41;6.63;;;5.13;;
9007;SDS011;62813;51.424;6.762;2022-08-19T13:12:08;10.07;;;5.27;;
9007;SDS011;62813;51.424;6.762;2022-08-19T13:14:39;6.73;;;5.20;;
9007;SDS011;62813;51.424;6.762;2022-08-19T13:17:06;6.90;;;5.23;;
9007;SDS011;62813;51.424;6.762;2022-08-19T13:19:36;6.53;;;5.07;;
9007;SDS011;62813;51.424;6.762;2022-08-19T13:22:03;6.13;;;5.30;;
9007;SDS011;62813;51.424;6.762;2022-08-19T13:24:38;6.67;;;5.30;;
9007;SDS011;62813;51.424;6.762;2022-08-19T13:27:12;6.63;;;5.10;;
9007;SDS011;62813;51.424;6.762;2022-08-19T13:29:39;6.13;;;5.17;;
9007;SDS011;62813;51.424;6.762;2022-08-19T13:32:28;5.27;;;4.70;;
9007;SDS011;62813;51.424;6.762;2022-08-19T13:35:16;8.33;;;5.37;;
9007;SDS011;62813;51.424;6.762;2022-08-19T13:37:43;6.20;;;5.13;;
9007;SDS011;62813;51.424;6.762;2022-08-19T13:40:21;5.70;;;4.77;;
9007;SDS011;62813;51.424;6.762;2022-08-19T13:42:51;7.30;;;5.00;;
9007;SDS011;62813;51.424;6.762;2022-08-19T13:45:20;9.33;;;5.10;;
9007;SDS011;62813;51.424;6.762;2022-08-19T13:47:50;7.97;;;5.60;;
9007;SDS011;62813;51.424;6.762;2022-08-19T13:50:26;6.20;;;4.70;;
9007;SDS011;62813;51.424;6.762;2022-08-19T13:52:55;7.40;;;6.53;;
9007;SDS011;62813;51.424;6.762;2022-08-19T13:55:22;9.67;;;6.17;;
9007;SDS011;62813;51.424;6.762;2022-08-19T13:57:54;6.90;;;6.07;;
9007;SDS011;62813;51.424;6.762;2022-08-19T14:00:23;8.77;;;6.20;;
9007;SDS011;62813;51.424;6.762;2022-08-19T14:02:53;7.40;;;6.00;;
9007;SDS011;62813;51.424;6.762;2022-08-19T14:05:22;9.43;;;7.13;;
9007;SDS011;62813;51.424;6.762;2022-08-19T14:07:51;7.13;;;6.07;;
9007;SDS011;62813;51.424;6.762;2022-08-19T14:10:19;9.03;;;6.10;;
9007;SDS011;62813;51.424;6.762;2022-08-19T14:12:46;8.67;;;6.13;;
9007;SDS011;62813;51.424;6.762;2022-08-19T14:15:13;6.60;;;6.00;;
9007;SDS011;62813;51.424;6.762;2022-08-19T14:17:42;8.30;;;6.50;;
9007;SDS011;62813;51.424;6.762;2022-08-19T14:20:10;8.77;;;6.97;;
9007;SDS011;62813;51.424;6.762;2022-08-19T14:22:44;7.07;;;6.37;;
9007;SDS011;62813;51.424;6.762;2022-08-19T14:25:14;7.83;;;6.93;;
9007;SDS011;62813;51.424;6.762;2022-08-19T14:27:43;7.43;;;6.53;;
9007;SDS011;62813;51.424;6.762;2022-08-19T14:30:12;7.53;;;6.37;;
9007;SDS011;62813;51.424;6.762;2022-08-19T14:32:41;12.13;;;5.57;;
9007;SDS011;62813;51.424;6.762;2022-08-19T14:35:10;11.85;;;5.75;;
9007;SDS011;62813;51.424;6.762;2022-08-19T14:37:38;11.63;;;5.80;;
9007;SDS011;62813;51.424;6.762;2022-08-19T14:40:11;6.70;;;5.68;;
9007;SDS011;62813;51.424;6.762;2022-08-19T14:42:40;6.07;;;4.97;;
9007;SDS011;62813;51.424;6.762;2022-08-19T14:45:08;9.13;;;5.15;;
9007;SDS011;62813;51.424;6.762;2022-08-19T14:47:36;7.55;;;5.40;;
9007;SDS011;62813;51.424;6.762;2022-08-19T14:50:07;7.30;;;5.10;;
9007;SDS011;62813;51.424;6.762;2022-08-19T14:52:44;6.95;;;5.60;;
9007;SDS011;62813;51.424;6.762;2022-08-19T14:55:11;11.23;;;4.95;;
9007;SDS011;62813;51.424;6.762;2022-08-19T14:57:40;5.15;;;4.50;;
9007;SDS011;62813;51.424;6.762;2022-08-19T15:00:07;6.38;;;4.70;;
9007;SDS011;62813;51.424;6.762;2022-08-19T15:02:40;5.60;;;4.35;;
9007;SDS011;62813;51.424;6.762;2022-08-19T15:05:07;6.30;;;4.93;;
9007;SDS011;62813;51.424;6.762;2022-08-19T15:07:34;5.65;;;4.70;;
9007;SDS011;62813;51.424;6.762;2022-08-19T15:10:02;7.43;;;5.55;;
9007;SDS011;62813;51.424;6.762;2022-08-19T15:12:29;6.50;;;5.28;;
9007;SDS011;62813;51.424;6.762;2022-08-19T15:14:56;7.57;;;5.20;;
9007;SDS011;62813;51.424;6.762;2022-08-19T15:17:23;5.43;;;4.93;;